Time;durP1;ratioP1;P1;durP2;ratioP2;P2;SDS_P1;SDS_P2;PMS_P1;PMS_P2;Temp;Humidity;BMP_temperature;BMP_pressure;BME280_temperature;BME280_humidity;BME280_pressure;Samples;Min_cycle;Max_cycle;Signal;HPM_P1;HPM_P2
2022/06/27 00:01:43;;;;;;;2.45;1.95;;;;;;;23.21;52.77;99822.59;4392159;32;34663;-75
2022/06/27 00:04:10;;;;;;;3.30;2.17;;;;;;;22.75;53.71;99818.63;4392084;32;33761;-74
2022/06/27 00:06:39;;;;;;;2.30;2.03;;;;;;;22.99;53.04;99815.31;4392060;32;34259;-74
2022/06/27 00:09:07;;;;;;;3.17;2.40;;;;;;;22.76;53.76;99819.44;4391904;32;34074;-73
2022/06/27 00:11:35;;;;;;;3.25;2.35;;;;;;;22.81;53.71;99813.75;4392007;32;34851;-74
2022/06/27 00:14:03;;;;;;;2.75;2.10;;;;;;;22.86;53.80;99816.34;4392616;32;35665;-75
2022/06/27 00:16:31;;;;;;;3.35;2.30;;;;;;;23.08;53.46;99821.66;4392146;32;32903;-73
2022/06/27 00:19:15;;;;;;;2.60;2.00;;;;;;;22.90;53.68;99818.09;4392748;32;33972;-75
2022/06/27 00:21:43;;;;;;;6.80;2.47;;;;;;;22.73;53.95;99821.72;4393277;32;34139;-73
2022/06/27 00:24:11;;;;;;;3.45;2.15;;;;;;;22.45;54.41;99820.47;4391884;32;35034;-73
2022/06/27 00:26:38;;;;;;;4.28;2.37;;;;;;;22.41;54.38;99822.25;4391594;32;33254;-73
2022/06/27 00:29:06;;;;;;;3.08;2.42;;;;;;;22.58;53.93;99816.72;4392076;32;33821;-73
2022/06/27 00:31:33;;;;;;;3.28;2.20;;;;;;;22.75;54.21;99820.59;4392940;32;35189;-73
2022/06/27 00:34:02;;;;;;;4.95;2.12;;;;;;;22.60;54.61;99819.97;4393334;32;33998;-73
2022/06/27 00:36:29;;;;;;;2.53;2.00;;;;;;;22.46;54.74;99819.31;4393139;32;34021;-74
2022/06/27 00:38:57;;;;;;;2.80;2.17;;;;;;;22.49;54.55;99829.75;4392799;32;33873;-73
2022/06/27 00:41:24;;;;;;;2.47;1.92;;;;;;;22.76;54.07;99827.75;4392682;32;34038;-72
2022/06/27 00:43:52;;;;;;;2.35;1.98;;;;;;;22.86;53.99;99816.34;4393011;32;33850;-72
2022/06/27 00:46:19;;;;;;;3.20;2.30;;;;;;;22.59;54.54;99820.28;4393181;32;33699;-73
2022/06/27 00:48:47;;;;;;;2.67;2.12;;;;;;;22.92;53.70;99820.56;4391660;32;34671;-72
2022/06/27 00:51:15;;;;;;;2.70;2.10;;;;;;;22.30;55.36;99824.53;4392632;32;33953;-73
2022/06/27 00:53:43;;;;;;;2.90;2.33;;;;;;;22.26;55.50;99818.84;4391876;32;33462;-73
2022/06/27 00:56:10;;;;;;;3.78;2.30;;;;;;;22.38;55.33;99822.94;4392639;32;34072;-72
2022/06/27 00:58:38;;;;;;;2.58;2.20;;;;;;;22.31;55.67;99824.22;4392771;32;33853;-73
2022/06/27 01:01:06;;;;;;;3.50;2.42;;;;;;;22.28;55.68;99824.84;4391327;32;35155;-73
2022/06/27 01:03:34;;;;;;;2.62;2.20;;;;;;;22.46;55.10;99835.91;4392831;32;34832;-73
2022/06/27 01:06:03;;;;;;;3.65;2.50;;;;;;;22.32;55.42;99831.38;4391822;32;32683;-73
2022/06/27 01:08:31;;;;;;;3.28;2.22;;;;;;;22.18;55.88;99830.69;4391601;32;34296;-73
2022/06/27 01:10:58;;;;;;;3.03;2.30;;;;;;;22.05;55.97;99838.00;4392317;32;33878;-72
2022/06/27 01:13:26;;;;;;;4.95;2.33;;;;;;;21.91;56.38;99831.81;4392461;32;33882;-73
2022/06/27 01:15:53;;;;;;;3.40;2.35;;;;;;;21.96;56.58;99828.06;4391855;32;34303;-74
2022/06/27 01:18:21;;;;;;;2.60;2.10;;;;;;;21.81;56.87;99829.34;4392683;32;34640;-73
2022/06/27 01:20:49;;;;;;;2.70;2.20;;;;;;;22.03;56.35;99828.38;4392115;32;35171;-74
2022/06/27 01:23:16;;;;;;;2.22;1.90;;;;;;;21.95;56.67;99830.03;4392545;32;33946;-76
2022/06/27 01:25:44;;;;;;;2.97;2.25;;;;;;;21.83;57.32;99832.59;4392876;32;34159;-76
2022/06/27 01:28:11;;;;;;;4.55;2.45;;;;;;;21.75;57.50;99830.63;4392719;32;34021;-73
2022/06/27 01:30:39;;;;;;;4.40;2.10;;;;;;;21.40;58.72;99822.22;4392408;32;34448;-73
2022/06/27 01:33:07;;;;;;;4.62;2.37;;;;;;;21.35;58.84;99827.88;4392742;32;34053;-73
2022/06/27 01:35:34;;;;;;;2.90;2.20;;;;;;;20.79;60.69;99821.94;4392190;32;33153;-74
2022/06/27 01:38:03;;;;;;;2.83;2.40;;;;;;;21.55;58.51;99823.75;4393022;32;34587;-73
2022/06/27 01:40:30;;;;;;;3.62;2.22;;;;;;;21.43;58.60;99821.62;4392373;32;34090;-73
2022/06/27 01:42:58;;;;;;;4.28;2.37;;;;;;;21.41;58.62;99818.34;4391382;32;33783;-73
2022/06/27 01:45:29;;;;;;;2.60;2.20;;;;;;;21.49;58.29;99815.63;4391662;32;33664;-76
2022/06/27 01:47:57;;;;;;;2.95;2.65;;;;;;;21.44;58.52;99824.03;4391074;32;34805;-73
2022/06/27 01:50:25;;;;;;;2.80;2.22;;;;;;;21.60;58.01;99821.66;4391984;32;34934;-73
2022/06/27 01:52:54;;;;;;;2.85;2.30;;;;;;;21.74;57.59;99826.25;4392434;32;34463;-73
2022/06/27 01:55:24;;;;;;;3.22;2.70;;;;;;;21.85;57.30;99830.31;4391493;32;33665;-73
2022/06/27 01:57:52;;;;;;;3.97;2.65;;;;;;;21.82;57.26;99817.16;4390866;32;33581;-73
2022/06/27 02:00:20;;;;;;;3.15;2.30;;;;;;;21.67;57.60;99821.19;4390999;32;35208;-72
2022/06/27 02:02:56;;;;;;;3.03;2.03;;;;;;;21.86;57.20;99821.72;4392056;32;34603;-73
2022/06/27 02:05:24;;;;;;;3.33;2.30;;;;;;;21.01;60.14;99824.63;4391479;32;33136;-72
2022/06/27 02:07:54;;;;;;;3.80;2.45;;;;;;;21.13;59.45;99821.31;4391402;32;34876;-74
2022/06/27 02:10:21;;;;;;;3.40;2.30;;;;;;;21.06;59.54;99827.28;4390614;32;34989;-73
2022/06/27 02:12:51;;;;;;;3.28;2.55;;;;;;;21.26;58.90;99834.19;4391089;32;33671;-73
2022/06/27 02:15:18;;;;;;;3.25;2.37;;;;;;;21.77;57.51;99836.62;4391363;32;33401;-75
2022/06/27 02:17:46;;;;;;;3.85;2.80;;;;;;;21.64;57.75;99833.69;4392687;32;34020;-74
2022/06/27 02:20:14;;;;;;;3.70;2.65;;;;;;;21.30;58.94;99834.37;4391227;32;34304;-76
2022/06/27 02:22:42;;;;;;;3.78;2.87;;;;;;;;;;4392521;32;33811;-74
2022/06/27 02:25:10;;;;;;;3.55;2.37;;;;;;;21.35;59.19;99845.25;4392393;32;34728;-72
2022/06/27 02:27:38;;;;;;;3.12;2.42;;;;;;;21.58;58.47;99839.69;4392396;32;34090;-74
2022/06/27 02:30:13;;;;;;;3.83;2.47;;;;;;;21.43;58.90;99839.00;4390440;32;34072;-74
2022/06/27 02:32:41;;;;;;;3.65;3.03;;;;;;;21.45;58.91;99836.72;4390852;32;33740;-72
2022/06/27 02:35:09;;;;;;;3.92;2.80;;;;;;;21.18;59.68;99832.19;4390831;32;32828;-74
2022/06/27 02:37:37;;;;;;;2.85;2.53;;;;;;;21.39;59.14;99837.16;4390449;32;34627;-73
2022/06/27 02:40:06;;;;;;;4.75;2.90;;;;;;;21.15;59.83;99843.88;4391344;32;34228;-72
2022/06/27 02:42:33;;;;;;;3.35;2.78;;;;;;;21.16;59.59;99848.25;4391003;32;34996;-75
2022/06/27 02:45:01;;;;;;;5.20;3.12;;;;;;;21.13;59.31;99846.13;4390782;32;34515;-73
2022/06/27 02:47:32;;;;;;;3.58;2.97;;;;;;;21.02;59.55;99851.09;4391138;32;34270;-72
2022/06/27 02:50:00;;;;;;;5.07;2.87;;;;;;;21.23;58.94;99845.88;4391660;32;33974;-71
2022/06/27 02:52:37;;;;;;;5.18;2.92;;;;;;;21.52;58.15;99852.81;4378550;32;33012;-73
2022/06/27 02:55:08;;;;;;;4.47;3.08;;;;;;;21.84;57.30;99859.09;4391215;32;33309;-71
2022/06/27 02:57:40;;;;;;;4.30;2.92;;;;;;;21.89;56.96;99868.03;4392141;32;34680;-72
2022/06/27 03:00:09;;;;;;;5.97;3.50;;;;;;;21.86;57.39;99859.59;4391667;32;34383;-73
2022/06/27 03:02:38;;;;;;;5.07;3.22;;;;;;;21.95;57.30;99865.13;4392348;32;34043;-72
2022/06/27 03:05:07;;;;;;;4.05;3.10;;;;;;;21.98;57.18;99861.72;4403345;32;34244;-72
2022/06/27 03:07:42;;;;;;;4.32;2.92;;;;;;;22.20;56.62;99866.28;4378628;32;34078;-74
2022/06/27 03:10:11;;;;;;;4.10;3.00;;;;;;;21.79;58.00;99875.78;4391622;32;35044;-73
2022/06/27 03:12:40;;;;;;;4.68;3.20;;;;;;;22.21;56.70;99874.25;4391484;32;34677;-73
2022/06/27 03:15:08;;;;;;;3.65;2.87;;;;;;;21.94;57.44;99875.34;4390822;32;33400;-73
2022/06/27 03:17:36;;;;;;;4.65;2.85;;;;;;;22.37;56.24;99882.09;4390395;32;34786;-74
2022/06/27 03:20:11;;;;;;;3.40;2.70;;;;;;;22.37;56.56;99873.81;4390243;32;34149;-74
2022/06/27 03:22:39;;;;;;;4.00;3.00;;;;;;;22.60;55.93;99885.53;4392283;32;34672;-72
2022/06/27 03:25:07;;;;;;;4.78;3.30;;;;;;;22.62;55.43;99881.28;4391871;32;33537;-74
2022/06/27 03:27:35;;;;;;;4.18;2.67;;;;;;;22.83;55.16;99891.66;4392033;32;34622;-74
2022/06/27 03:30:04;;;;;;;3.72;2.83;;;;;;;22.85;55.12;99892.16;4390096;32;34385;-74
2022/06/27 03:32:32;;;;;;;5.78;3.20;;;;;;;22.49;56.27;99887.81;4391809;32;34031;-72
2022/06/27 03:35:01;;;;;;;5.93;2.87;;;;;;;23.03;54.62;99888.25;4392078;32;34336;-74
2022/06/27 03:37:30;;;;;;;4.20;3.00;;;;;;;22.72;55.52;99885.66;4390651;32;34036;-73
2022/06/27 03:39:58;;;;;;;3.30;2.62;;;;;;;23.28;54.26;99894.87;4391301;32;33869;-73
2022/06/27 03:42:27;;;;;;;4.28;2.95;;;;;;;23.39;53.54;99898.09;4391801;32;34079;-75
2022/06/27 03:44:54;;;;;;;4.20;2.75;;;;;;;23.20;54.34;99895.72;4391639;32;33466;-75
2022/06/27 03:47:22;;;;;;;6.32;2.95;;;;;;;23.67;52.92;99894.87;4391576;32;33924;-71
2022/06/27 03:50:01;;;;;;;5.87;2.67;;;;;;;23.60;53.49;99894.59;4391325;32;32477;-71
2022/06/27 03:52:29;;;;;;;4.03;2.70;;;;;;;23.88;52.59;99893.00;4391443;32;33851;-75
2022/06/27 03:54:57;;;;;;;3.42;2.67;;;;;;;23.91;53.36;99892.34;4388453;32;33103;-71
2022/06/27 03:57:24;;;;;;;3.70;2.78;;;;;;;24.15;51.90;99893.66;4390000;32;33857;-72
2022/06/27 03:59:53;;;;;;;4.00;2.67;;;;;;;23.62;53.13;99897.84;4390779;32;34387;-70
2022/06/27 04:02:22;;;;;;;4.20;3.05;;;;;;;24.27;51.55;99892.91;4391076;32;34054;-71
2022/06/27 04:04:51;;;;;;;2.90;2.60;;;;;;;24.30;51.39;99898.59;4391412;32;33381;-72
2022/06/27 04:07:18;;;;;;;4.05;2.70;;;;;;;24.54;51.08;99900.72;4391146;32;34936;-71
2022/06/27 04:09:47;;;;;;;3.15;2.40;;;;;;;24.60;50.67;99912.44;4390542;32;33897;-71
2022/06/27 04:12:15;;;;;;;5.55;2.90;;;;;;;25.10;49.23;99911.47;4390386;32;34398;-74
2022/06/27 04:14:45;;;;;;;4.62;2.90;;;;;;;24.77;50.01;99908.69;4390967;32;31815;-71
2022/06/27 04:17:14;;;;;;;4.45;2.60;;;;;;;24.43;50.71;99913.38;4389854;32;34124;-71
2022/06/27 04:19:44;;;;;;;3.95;2.42;;;;;;;24.59;50.46;99912.78;4390317;32;33967;-71
2022/06/27 04:22:15;;;;;;;3.20;2.60;;;;;;;24.88;49.53;99923.78;4391045;32;34248;-73
2022/06/27 04:24:46;;;;;;;3.42;2.60;;;;;;;24.59;50.07;99921.09;4391009;32;33656;-72
2022/06/27 04:27:19;;;;;;;5.62;2.85;;;;;;;24.44;50.83;99926.06;4391202;32;34538;-72
2022/06/27 04:29:49;;;;;;;3.65;2.78;;;;;;;24.90;50.07;99924.25;4390600;32;34132;-72
2022/06/27 04:32:18;;;;;;;4.25;2.40;;;;;;;25.11;48.77;99926.16;4389475;32;34546;-72
2022/06/27 04:34:46;;;;;;;2.97;2.37;;;;;;;25.29;48.99;99926.81;4389733;32;33349;-71
2022/06/27 04:37:15;;;;;;;3.60;2.62;;;;;;;25.28;48.81;99928.78;4389908;32;34822;-72
2022/06/27 04:39:46;;;;;;;4.97;2.78;;;;;;;25.31;49.45;99924.50;4386550;32;34869;-70
2022/06/27 04:42:15;;;;;;;4.30;2.60;;;;;;;25.05;49.07;99930.31;4389269;32;33768;-71
2022/06/27 04:44:43;;;;;;;2.87;2.58;;;;;;;25.27;48.58;99921.62;4392576;32;33597;-74
2022/06/27 04:47:12;;;;;;;3.12;2.35;;;;;;;25.66;47.99;99926.88;4392052;32;33415;-72
2022/06/27 04:49:42;;;;;;;4.10;2.60;;;;;;;25.43;48.10;99918.97;4391624;32;34177;-73
2022/06/27 04:52:12;;;;;;;3.47;2.50;;;;;;;25.31;48.57;99922.56;4391559;32;33252;-71
2022/06/27 04:54:41;;;;;;;4.40;3.03;;;;;;;25.21;48.85;99919.41;4390207;32;33396;-79
2022/06/27 04:57:10;;;;;;;3.55;2.42;;;;;;;25.55;48.04;99919.00;4391045;32;34013;-73
2022/06/27 04:59:38;;;;;;;4.80;2.40;;;;;;;25.89;47.17;99925.28;4392142;32;33976;-71
2022/06/27 05:02:06;;;;;;;3.30;2.53;;;;;;;25.85;47.17;99924.34;4392229;32;33883;-70
2022/06/27 05:04:34;;;;;;;3.97;2.60;;;;;;;26.04;47.21;99932.13;4389705;32;85383;-73
2022/06/27 05:07:02;;;;;;;3.75;2.80;;;;;;;26.19;46.32;99941.72;4396587;32;33826;-72
2022/06/27 05:09:30;;;;;;;3.03;2.17;;;;;;;26.36;47.00;99937.88;4397985;32;33952;-71
2022/06/27 05:11:58;;;;;;;4.55;2.95;;;;;;;26.44;46.47;99934.16;4389435;32;34900;-71
2022/06/27 05:14:25;;;;;;;3.80;2.50;;;;;;;25.51;47.73;99928.38;4404049;32;33107;-72
2022/06/27 05:16:53;;;;;;;2.78;2.17;;;;;;;25.58;47.71;99932.19;4394419;32;34596;-72
2022/06/27 05:19:22;;;;;;;6.37;2.85;;;;;;;25.85;46.97;99932.66;4391060;32;34947;-72
2022/06/27 05:21:50;;;;;;;4.43;2.90;;;;;;;25.45;47.93;99938.91;4392458;32;34029;-74
2022/06/27 05:24:18;;;;;;;4.40;2.67;;;;;;;25.99;46.62;99935.16;4378536;32;32780;-73
2022/06/27 05:26:46;;;;;;;3.97;2.40;;;;;;;25.99;47.56;99935.16;4390909;32;33903;-72
2022/06/27 05:29:14;;;;;;;3.55;2.60;;;;;;;25.95;47.11;99939.78;4391043;32;32845;-73
2022/06/27 05:31:41;;;;;;;4.07;2.83;;;;;;;26.17;46.64;99933.72;4392225;32;33906;-73
2022/06/27 05:34:09;;;;;;;3.28;2.55;;;;;;;26.33;46.38;99933.84;4392328;32;34108;-71
2022/06/27 05:36:37;;;;;;;4.43;2.35;;;;;;;26.65;46.17;99936.78;4378305;32;33833;-74
2022/06/27 05:39:05;;;;;;;4.43;2.97;;;;;;;26.54;46.78;99935.62;4378409;32;34431;-74
2022/06/27 05:41:34;;;;;;;3.03;2.35;;;;;;;26.33;46.73;99938.59;4388758;32;34549;-78
2022/06/27 05:44:03;;;;;;;3.20;2.25;;;;;;;25.90;48.82;99931.69;4375665;32;33425;-76
2022/06/27 05:46:32;;;;;;;3.72;2.37;;;;;;;26.14;46.94;99947.53;4390405;32;33565;-77
2022/06/27 05:49:03;;;;;;;5.07;2.80;;;;;;;25.91;47.90;99936.88;4390835;32;35040;-79
2022/06/27 05:51:32;;;;;;;3.22;2.42;;;;;;;26.26;47.52;99936.38;4391960;32;33556;-82
2022/06/27 05:54:01;;;;;;;4.10;2.70;;;;;;;26.40;47.36;99939.59;4390999;32;34324;-78
2022/06/27 05:56:30;;;;;;;3.60;2.92;;;;;;;26.75;44.95;99936.28;4391386;32;34120;-78
2022/06/27 05:58:58;;;;;;;4.00;2.67;;;;;;;26.90;46.30;99940.31;4391958;32;34163;-78
2022/06/27 06:01:27;;;;;;;3.85;2.87;;;;;;;26.52;45.76;99944.34;4390246;32;35035;-85
2022/06/27 06:03:56;;;;;;;3.45;2.50;;;;;;;26.84;45.31;99946.47;4390663;32;34589;-81
2022/06/27 06:06:28;;;;;;;5.20;3.10;;;;;;;26.87;45.02;99946.59;4390687;32;33789;-77
2022/06/27 06:08:57;;;;;;;4.40;2.67;;;;;;;26.85;45.97;99948.13;4390271;32;34266;-78
2022/06/27 06:11:24;;;;;;;7.68;2.90;;;;;;;26.69;46.25;99957.19;4391218;32;33681;-78
2022/06/27 06:13:52;;;;;;;4.00;2.50;;;;;;;26.58;45.97;99956.88;4390908;32;32154;-79
2022/06/27 06:16:20;;;;;;;5.15;2.83;;;;;;;26.88;45.32;99955.75;4391562;32;33896;-80
2022/06/27 06:18:58;;;;;;;3.08;2.55;;;;;;;26.79;44.62;99959.47;4389270;32;33664;-77
2022/06/27 06:21:26;;;;;;;3.95;3.15;;;;;;;26.52;46.34;99958.25;4391747;32;33780;-76
2022/06/27 06:23:54;;;;;;;4.53;2.80;;;;;;;27.25;44.96;99967.56;4391658;32;33183;-80
2022/06/27 06:26:22;;;;;;;4.18;3.03;;;;;;;27.75;43.46;99968.88;4391961;32;33925;-71
2022/06/27 06:28:50;;;;;;;5.20;2.90;;;;;;;28.10;42.83;99975.72;4390998;32;34213;-72
2022/06/27 06:31:22;;;;;;;3.87;2.83;;;;;;;28.12;42.43;99971.41;4390432;32;34576;-71
2022/06/27 06:33:54;;;;;;;3.92;2.62;;;;;;;28.31;42.94;99976.22;4392215;32;34395;-71
2022/06/27 06:36:23;;;;;;;3.47;2.65;;;;;;;28.32;42.18;99974.25;4390604;32;33921;-72
2022/06/27 06:38:51;;;;;;;3.20;2.70;;;;;;;27.55;43.36;99969.94;4390327;32;34199;-69
2022/06/27 06:41:19;;;;;;;4.12;2.33;;;;;;;27.96;42.40;99977.00;4378686;32;34247;-71
2022/06/27 06:43:47;;;;;;;4.43;2.70;;;;;;;28.04;43.50;99968.81;4390813;32;32900;-69
2022/06/27 06:46:17;;;;;;;3.95;3.03;;;;;;;27.83;43.05;99981.00;4390775;32;33800;-73
2022/06/27 06:48:46;;;;;;;4.05;3.00;;;;;;;28.09;42.83;99965.75;4391332;32;35043;-70
2022/06/27 06:51:15;;;;;;;3.20;2.65;;;;;;;28.38;41.70;99973.62;4390283;32;34755;-75
2022/06/27 06:53:44;;;;;;;3.78;2.70;;;;;;;27.99;43.78;99973.50;4392011;32;34078;-70
2022/06/27 06:56:12;;;;;;;3.17;2.45;;;;;;;28.16;42.94;99965.91;4390478;32;33151;-71
2022/06/27 06:58:40;;;;;;;4.50;2.97;;;;;;;27.90;43.53;99970.06;4390210;32;35075;-73
2022/06/27 07:01:08;;;;;;;3.95;2.97;;;;;;;28.27;42.37;99971.72;4391728;32;33797;-76
2022/06/27 07:03:36;;;;;;;3.62;2.80;;;;;;;28.02;42.99;99966.38;4390325;32;33252;-72
2022/06/27 07:06:05;;;;;;;4.03;2.80;;;;;;;27.87;43.52;99970.78;4391240;32;33779;-72
2022/06/27 07:08:33;;;;;;;4.80;2.45;;;;;;;28.08;42.95;99975.25;4388431;32;35073;-75
2022/06/27 07:11:02;;;;;;;6.03;2.72;;;;;;;28.04;42.72;99978.00;4390813;32;34036;-76
2022/06/27 07:13:30;;;;;;;5.78;3.08;;;;;;;27.91;42.96;99980.06;4386473;32;33335;-72
2022/06/27 07:15:57;;;;;;;4.45;2.75;;;;;;;28.06;42.28;99978.44;4390225;32;33257;-71
2022/06/27 07:18:25;;;;;;;3.83;2.53;;;;;;;28.32;41.77;99975.06;4386786;32;35060;-74
2022/06/27 07:20:53;;;;;;;4.10;2.67;;;;;;;28.79;41.56;99967.72;4386946;32;33874;-75
2022/06/27 07:23:21;;;;;;;4.55;3.08;;;;;;;28.40;42.37;99974.06;4391253;32;33448;-73
2022/06/27 07:25:49;;;;;;;5.65;2.70;;;;;;;27.83;44.53;99964.28;4391350;32;33685;-70
2022/06/27 07:28:20;;;;;;;3.55;2.60;;;;;;;29.10;41.41;99968.81;4390324;32;35082;-72
2022/06/27 07:30:48;;;;;;;5.28;3.05;;;;;;;29.84;39.76;99977.75;4389778;32;32991;-72
2022/06/27 07:33:16;;;;;;;3.45;2.55;;;;;;;30.03;38.94;99974.09;4390748;32;33405;-72
2022/06/27 07:35:44;;;;;;;6.62;2.92;;;;;;;29.18;41.26;99982.53;4390611;32;34452;-70
2022/06/27 07:38:12;;;;;;;5.62;3.05;;;;;;;29.69;39.90;99981.50;4391164;32;35012;-72
2022/06/27 07:40:41;;;;;;;4.20;2.85;;;;;;;29.20;41.68;99970.97;4390642;32;34737;-73
2022/06/27 07:43:10;;;;;;;3.55;2.45;;;;;;;29.30;40.26;99980.75;4390492;32;33677;-71
2022/06/27 07:45:38;;;;;;;4.57;2.75;;;;;;;29.04;42.37;99980.22;4391065;32;34663;-72
2022/06/27 07:48:06;;;;;;;3.60;2.60;;;;;;;28.53;42.04;99977.56;4390017;32;34839;-72
2022/06/27 07:50:36;;;;;;;7.55;2.62;;;;;;;28.99;42.36;99985.31;4390439;32;33950;-73
2022/06/27 07:53:14;;;;;;;3.47;2.53;;;;;;;28.69;42.02;99993.47;4389570;32;32614;-74
2022/06/27 07:55:57;;;;;;;4.87;2.50;;;;;;;28.93;42.37;99992.38;4388103;32;33306;-73
2022/06/27 07:58:33;;;;;;;3.85;2.72;;;;;;;29.24;40.20;99992.25;4375609;32;34951;-74
2022/06/27 08:01:05;;;;;;;3.42;2.58;;;;;;;29.71;39.96;99993.13;4389675;32;33515;-72
2022/06/27 08:03:40;;;;;;;4.35;2.53;;;;;;;29.92;40.13;99989.09;4385895;32;34274;-72
2022/06/27 08:06:17;;;;;;;3.80;2.70;;;;;;;29.72;40.46;99991.94;4388755;32;33634;-71
2022/06/27 08:08:47;;;;;;;4.53;2.72;;;;;;;30.07;38.76;99990.12;4401646;32;35008;-71
2022/06/27 08:11:17;;;;;;;4.87;2.72;;;;;;;29.90;38.96;99992.25;4373235;32;34767;-69
2022/06/27 08:13:47;;;;;;;3.30;2.60;;;;;;;29.51;39.46;99997.12;4386600;32;33595;-75
2022/06/27 08:16:15;;;;;;;3.47;2.37;;;;;;;29.38;39.22;99985.31;4380293;32;34741;-72
2022/06/27 08:18:44;;;;;;;4.40;2.70;;;;;;;29.88;39.14;99991.81;4390949;32;34067;-72
2022/06/27 08:21:20;;;;;;;3.97;2.78;;;;;;;29.69;39.07;99995.47;4388481;32;34399;-75
2022/06/27 08:23:49;;;;;;;3.53;2.20;;;;;;;29.83;38.74;99994.94;4384465;32;34245;-74
2022/06/27 08:26:18;;;;;;;4.50;2.58;;;;;;;29.95;38.53;99997.53;4390249;32;33685;-77
2022/06/27 08:28:49;;;;;;;3.47;2.65;;;;;;;29.85;37.59;99995.38;4376582;32;34199;-76
2022/06/27 08:31:17;;;;;;;3.03;2.33;;;;;;;30.38;36.70;100009.44;4376125;32;35175;-74
2022/06/27 08:33:55;;;;;;;3.40;2.40;;;;;;;29.89;38.85;100006.59;4390756;32;33610;-70
2022/06/27 08:36:23;;;;;;;4.40;2.50;;;;;;;30.17;39.94;100009.91;4391173;32;34081;-70
2022/06/27 08:38:51;;;;;;;2.40;2.00;;;;;;;30.42;36.96;100013.09;4392186;32;34138;-69
2022/06/27 08:41:20;;;;;;;2.33;2.12;;;;;;;30.78;36.34;100005.19;4392884;32;33945;-72
2022/06/27 08:43:49;;;;;;;3.42;2.53;;;;;;;30.84;36.54;100003.69;4391648;32;33094;-71
2022/06/27 08:46:17;;;;;;;3.03;2.47;;;;;;;30.91;36.83;100003.00;4392109;32;33944;-71
2022/06/27 08:48:47;;;;;;;3.85;2.55;;;;;;;30.57;37.09;100002.09;4402904;32;34913;-73
2022/06/27 08:51:16;;;;;;;3.50;2.50;;;;;;;30.95;35.54;100001.06;4392092;32;34694;-73
2022/06/27 08:53:44;;;;;;;2.55;2.10;;;;;;;30.69;36.47;100003.84;4392090;32;34100;-72
2022/06/27 08:56:14;;;;;;;3.72;2.30;;;;;;;30.72;36.92;99997.50;4392126;32;34136;-70
2022/06/27 08:58:46;;;;;;;5.25;2.15;;;;;;;30.89;35.88;99993.34;4391033;32;34253;-74
2022/06/27 09:01:16;;;;;;;5.25;2.30;;;;;;;30.60;37.68;99995.75;4390766;32;34171;-70
2022/06/27 09:03:58;;;;;;;3.85;2.67;;;;;;;30.82;35.05;99991.22;4392387;32;33448;-72
2022/06/27 09:06:30;;;;;;;3.12;2.50;;;;;;;30.72;36.14;99986.31;4392545;32;34640;-70
2022/06/27 09:09:05;;;;;;;4.37;2.45;;;;;;;30.23;37.38;99985.19;4392661;32;34763;-72
2022/06/27 09:11:35;;;;;;;4.25;2.55;;;;;;;30.56;37.87;99983.69;4392313;32;33751;-70
2022/06/27 09:14:05;;;;;;;2.80;2.00;;;;;;;30.74;35.09;99981.94;4392379;32;34189;-72
2022/06/27 09:16:33;;;;;;;2.97;2.30;;;;;;;31.43;36.77;99984.41;4391851;32;33598;-71
2022/06/27 09:19:06;;;;;;;;;;;;;;;30.96;35.62;99985.03;4391167;32;34692;-71
2022/06/27 09:21:34;;;;;;;3.00;2.30;;;;;;;31.16;35.20;99978.06;4391140;32;33585;-72
2022/06/27 09:24:02;;;;;;;3.10;2.30;;;;;;;31.44;35.93;99976.78;4389872;32;33527;-72
2022/06/27 09:26:31;;;;;;;2.90;2.10;;;;;;;31.10;34.19;99976.78;4391821;32;33823;-71
2022/06/27 09:29:08;;;;;;;3.22;2.28;;;;;;;31.92;33.88;99976.03;4390837;32;33761;-70
2022/06/27 09:31:45;;;;;;;3.90;2.50;;;;;;;31.70;33.56;99975.03;4391033;32;33644;-71
2022/06/27 09:34:21;;;;;;;3.92;2.65;;;;;;;31.73;34.17;99977.87;4392196;32;33429;-72
2022/06/27 09:36:57;;;;;;;2.87;2.22;;;;;;;32.19;32.62;99980.28;4391032;32;34705;-71
2022/06/27 09:39:36;;;;;;;4.62;2.17;;;;;;;30.96;35.70;99974.62;4390596;32;34252;-72
2022/06/27 09:42:07;;;;;;;3.55;2.40;;;;;;;31.72;35.45;99972.66;4391153;32;34344;-71
2022/06/27 09:44:38;;;;;;;3.80;2.20;;;;;;;32.24;35.23;99968.66;4378888;32;32404;-73
2022/06/27 09:47:11;;;;;;;5.05;2.15;;;;;;;32.23;35.49;99969.09;4390208;32;34509;-70
2022/06/27 09:49:41;;;;;;;3.03;2.33;;;;;;;32.69;30.90;99968.56;4392415;32;34073;-71
2022/06/27 09:52:19;;;;;;;3.40;2.08;;;;;;;32.62;31.59;99960.91;4392310;32;33935;-71
2022/06/27 09:54:49;;;;;;;4.62;2.47;;;;;;;32.69;31.75;99960.12;4391058;32;33637;-71
2022/06/27 09:57:18;;;;;;;4.97;2.30;;;;;;;32.92;30.83;99959.00;4392256;32;33859;-71
2022/06/27 09:59:50;;;;;;;4.47;2.25;;;;;;;32.83;31.37;99951.78;4391481;32;33887;-71
2022/06/27 10:02:21;;;;;;;2.78;2.20;;;;;;;32.88;33.82;99953.41;4375688;32;33849;-71
2022/06/27 10:04:51;;;;;;;2.62;1.73;;;;;;;33.17;30.48;99959.94;4376056;32;33167;-72
2022/06/27 10:07:19;;;;;;;3.15;2.35;;;;;;;32.85;30.98;99960.63;4377155;32;34508;-73
2022/06/27 10:09:51;;;;;;;3.42;2.05;;;;;;;32.34;31.15;99953.09;4378626;32;34152;-69
2022/06/27 10:12:31;;;;;;;2.95;2.12;;;;;;;32.43;31.35;99953.56;4390800;32;34073;-68
2022/06/27 10:15:17;;;;;;;4.00;2.20;;;;;;;32.17;32.82;99943.38;4391831;32;34210;-69
2022/06/27 10:17:45;;;;;;;3.72;1.90;;;;;;;32.99;29.68;99950.63;4391171;32;33384;-69
2022/06/27 10:20:16;;;;;;;3.35;2.40;;;;;;;32.58;30.82;99945.25;4391968;32;33992;-68
2022/06/27 10:22:43;;;;;;;2.90;2.05;;;;;;;32.40;32.35;99934.69;4391062;32;34649;-71
2022/06/27 10:25:38;;;;;;;2.17;1.80;;;;;;;32.45;31.12;99931.50;4378773;32;33264;-70
2022/06/27 10:28:09;;;;;;;2.70;2.10;;;;;;;32.76;31.33;99942.50;4382327;32;33784;-69
2022/06/27 10:30:44;;;;;;;2.40;1.87;;;;;;;32.53;31.76;99937.16;4386025;32;34023;-72
2022/06/27 10:33:21;;;;;;;4.60;2.15;;;;;;;32.86;31.76;99938.94;4391002;32;34077;-69
2022/06/27 10:35:57;;;;;;;5.28;2.62;;;;;;;32.78;32.05;99938.09;4392232;32;34296;-71
2022/06/27 10:38:28;;;;;;;3.15;1.80;;;;;;;32.94;30.83;99934.13;4392222;32;35162;-68
2022/06/27 10:40:59;;;;;;;2.30;1.90;;;;;;;33.06;28.86;99936.59;4390989;32;35111;-71
2022/06/27 10:43:36;;;;;;;2.15;1.92;;;;;;;32.66;30.16;99930.84;4391892;32;34008;-70
2022/06/27 10:46:10;;;;;;;3.35;2.15;;;;;;;32.71;30.42;99928.84;4391938;32;34357;-71
2022/06/27 10:48:58;;;;;;;3.03;2.58;;;;;;;32.58;29.95;99920.75;4392054;32;34412;-68
2022/06/27 10:51:33;;;;;;;2.55;2.00;;;;;;;32.83;30.77;99912.44;4391523;32;34059;-70
2022/06/27 10:54:04;;;;;;;4.97;2.22;;;;;;;32.44;30.79;99903.78;4390835;32;34003;-69
2022/06/27 10:56:36;;;;;;;2.97;2.15;;;;;;;33.02;29.65;99913.28;4392216;32;34900;-69
2022/06/27 10:59:13;;;;;;;2.33;1.75;;;;;;;33.51;28.33;99906.94;4390379;32;34837;-68
2022/06/27 11:01:42;;;;;;;5.30;1.95;;;;;;;33.70;28.90;99910.63;4391915;32;33756;-70
2022/06/27 11:04:26;;;;;;;2.53;2.12;;;;;;;33.63;28.02;99919.88;4391620;32;34260;-68
2022/06/27 11:07:00;;;;;;;3.47;2.25;;;;;;;33.73;29.55;99906.19;4390914;32;33657;-68
2022/06/27 11:09:43;;;;;;;3.40;1.98;;;;;;;34.07;28.00;99904.53;4390486;32;34094;-69
2022/06/27 11:12:23;;;;;;;2.23;2.00;;;;;;;34.21;29.31;99903.75;4391784;32;34494;-69
2022/06/27 11:14:56;;;;;;;2.97;2.00;;;;;;;33.73;28.52;99897.75;4391815;32;34662;-68
2022/06/27 11:17:37;;;;;;;4.03;2.20;;;;;;;33.24;28.66;99895.28;4390220;32;33348;-68
2022/06/27 11:20:25;;;;;;;4.05;1.92;;;;;;;33.24;29.53;99891.66;4390097;32;34853;-69
2022/06/27 11:23:09;;;;;;;4.18;2.10;;;;;;;32.88;28.95;99891.56;4390418;32;34330;-68
2022/06/27 11:25:41;;;;;;;2.42;1.90;;;;;;;33.36;29.57;99884.84;4391785;32;33979;-68
2022/06/27 11:33:42;;;;;;;3.75;2.25;;;;;;;33.62;30.48;99872.44;4391190;32;34334;-68
2022/06/27 11:36:13;;;;;;;3.75;2.10;;;;;;;33.34;30.26;99876.81;4391624;32;34795;-68
2022/06/27 11:38:44;;;;;;;2.30;1.92;;;;;;;34.05;28.24;99869.56;4391693;32;33691;-69
2022/06/27 11:41:13;;;;;;;2.47;1.83;;;;;;;34.14;28.47;99880.41;4390339;32;33606;-69
2022/06/27 11:43:51;;;;;;;3.00;2.00;;;;;;;34.50;27.12;99872.66;4391565;32;34352;-70
2022/06/27 11:46:45;;;;;;;2.75;2.10;;;;;;;34.61;26.62;99867.75;4378011;32;33875;-69
2022/06/27 11:49:16;;;;;;;2.95;2.03;;;;;;;34.83;27.05;99870.50;4376010;32;34211;-68
2022/06/27 11:51:50;;;;;;;3.15;2.20;;;;;;;33.53;28.00;99866.38;4376589;32;33927;-70
2022/06/27 11:54:20;;;;;;;2.17;1.77;;;;;;;34.24;28.38;99865.50;4378229;32;34977;-71